sensor_id;sensor_type;location;lat;lon;timestamp;pressure;altitude;pressure_sealevel;temperature;humidity
16331;BME280;8275;48.206;16.340;2024-03-23T00:53:21;98660.44;;;18.68;36.25
16331;BME280;8275;48.206;16.340;2024-03-23T00:55:47;98661.75;;;18.71;36.32
16331;BME280;8275;48.206;16.340;2024-03-23T00:58:15;98659.78;;;18.71;36.29
16331;BME280;8275;48.206;16.340;2024-03-23T01:00:41;98663.34;;;18.72;36.38
16331;BME280;8275;48.206;16.340;2024-03-23T01:03:08;98661.09;;;18.74;36.36
16331;BME280;8275;48.206;16.340;2024-03-23T01:05:35;98657.50;;;18.73;36.40
16331;BME280;8275;48.206;16.340;2024-03-23T01:08:03;98652.78;;;18.74;36.54
16331;BME280;8275;48.206;16.340;2024-03-23T01:10:31;98658.31;;;18.74;36.60
16331;BME280;8275;48.206;16.340;2024-03-23T01:12:58;98651.94;;;18.73;36.72
16331;BME280;8275;48.206;16.340;2024-03-23T01:15:24;98652.25;;;18.72;36.68
16331;BME280;8275;48.206;16.340;2024-03-23T01:17:52;98655.03;;;18.72;36.64
16331;BME280;8275;48.206;16.340;2024-03-23T01:20:18;98653.41;;;18.71;36.52
16331;BME280;8275;48.206;16.340;2024-03-23T01:22:46;98656.19;;;18.71;36.50
16331;BME280;8275;48.206;16.340;2024-03-23T01:25:12;98654.88;;;18.68;36.56
16331;BME280;8275;48.206;16.340;2024-03-23T01:27:41;98650.16;;;18.69;36.35
16331;BME280;8275;48.206;16.340;2024-03-23T01:30:08;98651.75;;;18.70;36.48
16331;BME280;8275;48.206;16.340;2024-03-23T01:32:36;98642.31;;;18.71;36.29
16331;BME280;8275;48.206;16.340;2024-03-23T01:35:02;98646.69;;;18.72;36.41
16331;BME280;8275;48.206;16.340;2024-03-23T01:37:30;98639.69;;;18.74;36.42
16331;BME280;8275;48.206;16.340;2024-03-23T01:39:56;98631.38;;;18.74;36.42
16331;BME280;8275;48.206;16.340;2024-03-23T01:42:23;98635.78;;;18.75;36.44
16331;BME280;8275;48.206;16.340;2024-03-23T01:44:51;98639.06;;;18.77;36.29
16331;BME280;8275;48.206;16.340;2024-03-23T01:47:18;98629.25;;;18.80;36.38
16331;BME280;8275;48.206;16.340;2024-03-23T01:49:45;98626.50;;;18.80;36.34
16331;BME280;8275;48.206;16.340;2024-03-23T01:52:12;98624.19;;;18.82;36.31
16331;BME280;8275;48.206;16.340;2024-03-23T01:54:39;98617.81;;;18.81;36.42
16331;BME280;8275;48.206;16.340;2024-03-23T01:57:07;98620.28;;;18.83;36.37
16331;BME280;8275;48.206;16.340;2024-03-23T01:59:33;98613.59;;;18.84;36.27
16331;BME280;8275;48.206;16.340;2024-03-23T02:02:03;98609.69;;;18.85;36.36
16331;BME280;8275;48.206;16.340;2024-03-23T02:04:29;98612.47;;;18.85;36.25
16331;BME280;8275;48.206;16.340;2024-03-23T02:06:57;98616.06;;;18.85;36.42
16331;BME280;8275;48.206;16.340;2024-03-23T02:09:23;98615.22;;;18.85;36.48
16331;BME280;8275;48.206;16.340;2024-03-23T02:11:51;98605.25;;;18.84;36.51
16331;BME280;8275;48.206;16.340;2024-03-23T02:14:17;98608.84;;;18.84;36.52
16331;BME280;8275;48.206;16.340;2024-03-23T02:16:45;98606.09;;;18.84;36.49
16331;BME280;8275;48.206;16.340;2024-03-23T02:19:14;98592.22;;;18.84;36.54
16331;BME280;8275;48.206;16.340;2024-03-23T02:21:41;98595.81;;;18.85;36.38
16331;BME280;8275;48.206;16.340;2024-03-23T02:24:09;98582.75;;;18.85;36.53
16331;BME280;8275;48.206;16.340;2024-03-23T02:26:37;98577.50;;;18.84;36.63
16331;BME280;8275;48.206;16.340;2024-03-23T02:29:03;98569.81;;;18.81;36.80
16331;BME280;8275;48.206;16.340;2024-03-23T02:31:31;98572.13;;;18.79;36.88
16331;BME280;8275;48.206;16.340;2024-03-23T02:33:57;98572.13;;;18.79;37.02
16331;BME280;8275;48.206;16.340;2024-03-23T02:36:25;98557.75;;;18.77;37.20
16331;BME280;8275;48.206;16.340;2024-03-23T02:38:51;98555.81;;;18.77;37.08
16331;BME280;8275;48.206;16.340;2024-03-23T02:41:20;98547.00;;;18.75;37.10
16331;BME280;8275;48.206;16.340;2024-03-23T02:43:49;98541.44;;;18.75;36.87
16331;BME280;8275;48.206;16.340;2024-03-23T02:46:17;98540.97;;;18.73;37.21
16331;BME280;8275;48.206;16.340;2024-03-23T02:48:43;98533.47;;;18.74;37.22
16331;BME280;8275;48.206;16.340;2024-03-23T02:51:11;98540.97;;;18.73;37.25
16331;BME280;8275;48.206;16.340;2024-03-23T02:53:37;98539.00;;;18.74;37.15
16331;BME280;8275;48.206;16.340;2024-03-23T02:56:05;98528.22;;;18.72;37.17
16331;BME280;8275;48.206;16.340;2024-03-23T02:58:34;98541.28;;;18.72;37.28
16331;BME280;8275;48.206;16.340;2024-03-23T03:01:01;98534.09;;;18.71;37.13
16331;BME280;8275;48.206;16.340;2024-03-23T03:03:27;98536.88;;;18.71;37.27
16331;BME280;8275;48.206;16.340;2024-03-23T03:05:56;98539.16;;;18.69;37.26
16331;BME280;8275;48.206;16.340;2024-03-23T03:08:22;98536.69;;;18.67;37.30
16331;BME280;8275;48.206;16.340;2024-03-23T03:10:49;98533.78;;;18.64;37.35
16331;BME280;8275;48.206;16.340;2024-03-23T03:13:16;98526.91;;;18.61;37.28
16331;BME280;8275;48.206;16.340;2024-03-23T03:15:45;98530.03;;;18.60;37.30
16331;BME280;8275;48.206;16.340;2024-03-23T03:18:11;98530.03;;;18.60;37.31
16331;BME280;8275;48.206;16.340;2024-03-23T03:20:39;98520.88;;;18.59;37.29
16331;BME280;8275;48.206;16.340;2024-03-23T03:23:05;98520.06;;;18.59;37.21
16331;BME280;8275;48.206;16.340;2024-03-23T03:25:33;98522.00;;;18.58;37.37
16331;BME280;8275;48.206;16.340;2024-03-23T03:27:59;98515.69;;;18.58;37.39
16331;BME280;8275;48.206;16.340;2024-03-23T03:30:27;98518.75;;;18.56;37.42
16331;BME280;8275;48.206;16.340;2024-03-23T03:32:55;98518.28;;;18.54;37.27
16331;BME280;8275;48.206;16.340;2024-03-23T03:35:23;98518.28;;;18.54;37.57
16331;BME280;8275;48.206;16.340;2024-03-23T03:37:49;98508.81;;;18.55;37.61
16331;BME280;8275;48.206;16.340;2024-03-23T03:40:17;98508.81;;;18.55;37.53
16331;BME280;8275;48.206;16.340;2024-03-23T03:42:43;98507.66;;;18.56;37.61
16331;BME280;8275;48.206;16.340;2024-03-23T03:45:10;98513.22;;;18.56;37.54
16331;BME280;8275;48.206;16.340;2024-03-23T03:47:37;98508.34;;;18.53;37.71
16331;BME280;8275;48.206;16.340;2024-03-23T03:50:07;98507.34;;;18.49;37.75
16331;BME280;8275;48.206;16.340;2024-03-23T03:52:33;98509.97;;;18.46;37.65
16331;BME280;8275;48.206;16.340;2024-03-23T03:55:02;98511.22;;;18.40;37.74
16331;BME280;8275;48.206;16.340;2024-03-23T03:57:29;98517.44;;;18.37;37.79
16331;BME280;8275;48.206;16.340;2024-03-23T03:59:56;98509.25;;;18.32;37.92
16331;BME280;8275;48.206;16.340;2024-03-23T04:02:23;98509.09;;;18.28;37.81
16331;BME280;8275;48.206;16.340;2024-03-23T04:04:50;98503.72;;;18.23;38.02
16331;BME280;8275;48.206;16.340;2024-03-23T04:07:18;98505.47;;;18.19;37.93
16331;BME280;8275;48.206;16.340;2024-03-23T04:09:46;98499.78;;;18.15;38.09
16331;BME280;8275;48.206;16.340;2024-03-23T04:12:13;98498.47;;;18.13;37.98
16331;BME280;8275;48.206;16.340;2024-03-23T04:14:40;98495.22;;;18.11;38.27
16331;BME280;8275;48.206;16.340;2024-03-23T04:17:07;98490.50;;;18.11;38.25
16331;BME280;8275;48.206;16.340;2024-03-23T04:19:34;98478.59;;;18.11;38.19
16331;BME280;8275;48.206;16.340;2024-03-23T04:22:00;98475.47;;;18.12;38.22
16331;BME280;8275;48.206;16.340;2024-03-23T04:24:29;98477.44;;;18.12;38.31
16331;BME280;8275;48.206;16.340;2024-03-23T04:26:55;98479.91;;;18.13;38.35
16331;BME280;8275;48.206;16.340;2024-03-23T04:29:23;98481.84;;;18.13;38.40
16331;BME280;8275;48.206;16.340;2024-03-23T04:31:50;98480.72;;;18.14;38.26
16331;BME280;8275;48.206;16.340;2024-03-23T04:34:17;98485.09;;;18.15;38.39
16331;BME280;8275;48.206;16.340;2024-03-23T04:36:43;98488.69;;;18.15;38.51
16331;BME280;8275;48.206;16.340;2024-03-23T04:39:11;98487.88;;;18.15;38.59
16331;BME280;8275;48.206;16.340;2024-03-23T04:41:40;98483.50;;;18.14;38.35
16331;BME280;8275;48.206;16.340;2024-03-23T04:44:07;98484.28;;;18.14;38.51
16331;BME280;8275;48.206;16.340;2024-03-23T04:46:35;98470.41;;;18.14;38.58
16331;BME280;8275;48.206;16.340;2024-03-23T04:49:02;98469.28;;;18.15;38.55
16331;BME280;8275;48.206;16.340;2024-03-23T04:51:35;98469.28;;;18.15;38.63
16331;BME280;8275;48.206;16.340;2024-03-23T04:54:03;98461.94;;;18.19;38.60
16331;BME280;8275;48.206;16.340;2024-03-23T04:56:32;98468.81;;;18.22;38.47
16331;BME280;8275;48.206;16.340;2024-03-23T04:59:00;98456.09;;;18.21;38.38
16331;BME280;8275;48.206;16.340;2024-03-23T05:01:30;98460.81;;;18.20;38.58
16331;BME280;8275;48.206;16.340;2024-03-23T05:03:57;98447.78;;;18.21;38.56
16331;BME280;8275;48.206;16.340;2024-03-23T05:06:25;98445.00;;;18.21;38.53
16331;BME280;8275;48.206;16.340;2024-03-23T05:08:51;98451.03;;;18.23;38.63
16331;BME280;8275;48.206;16.340;2024-03-23T05:11:19;98440.75;;;18.23;38.53
16331;BME280;8275;48.206;16.340;2024-03-23T05:13:46;98444.81;;;18.26;38.54
16331;BME280;8275;48.206;16.340;2024-03-23T05:16:15;98425.91;;;18.28;38.55
16331;BME280;8275;48.206;16.340;2024-03-23T05:18:41;98429.19;;;18.30;38.61
16331;BME280;8275;48.206;16.340;2024-03-23T05:21:09;98431.28;;;18.33;38.68
16331;BME280;8275;48.206;16.340;2024-03-23T05:23:35;98423.44;;;18.35;38.59
16331;BME280;8275;48.206;16.340;2024-03-23T05:26:04;98422.81;;;18.38;38.55
16331;BME280;8275;48.206;16.340;2024-03-23T05:28:30;98429.31;;;18.42;38.63
16331;BME280;8275;48.206;16.340;2024-03-23T05:30:58;98432.91;;;18.43;38.62
16331;BME280;8275;48.206;16.340;2024-03-23T05:33:26;98426.75;;;18.46;38.50
16331;BME280;8275;48.206;16.340;2024-03-23T05:35:57;98422.81;;;18.47;38.68
16331;BME280;8275;48.206;16.340;2024-03-23T05:38:24;98423.13;;;18.54;38.44
16331;BME280;8275;48.206;16.340;2024-03-23T05:40:55;98429.16;;;18.56;38.58
16331;BME280;8275;48.206;16.340;2024-03-23T05:43:22;98428.53;;;18.59;38.57
16331;BME280;8275;48.206;16.340;2024-03-23T05:45:54;98424.13;;;18.58;38.55
16331;BME280;8275;48.206;16.340;2024-03-23T05:48:20;98419.06;;;18.60;38.59
16331;BME280;8275;48.206;16.340;2024-03-23T05:50:50;98421.84;;;18.60;38.66
16331;BME280;8275;48.206;16.340;2024-03-23T05:53:16;98418.38;;;18.63;38.63
16331;BME280;8275;48.206;16.340;2024-03-23T05:55:44;98417.25;;;18.64;38.60
16331;BME280;8275;48.206;16.340;2024-03-23T05:58:12;98414.63;;;18.67;38.67
16331;BME280;8275;48.206;16.340;2024-03-23T06:00:39;98421.47;;;18.70;38.59
16331;BME280;8275;48.206;16.340;2024-03-23T06:03:05;98414.94;;;18.74;38.59
16331;BME280;8275;48.206;16.340;2024-03-23T06:05:33;98410.69;;;18.77;38.64
16331;BME280;8275;48.206;16.340;2024-03-23T06:08:01;98408.09;;;18.80;38.61
16331;BME280;8275;48.206;16.340;2024-03-23T06:10:28;98423.75;;;18.85;38.63
16331;BME280;8275;48.206;16.340;2024-03-23T06:12:54;98415.25;;;18.90;38.48
16331;BME280;8275;48.206;16.340;2024-03-23T06:15:22;98407.06;;;18.93;38.60
16331;BME280;8275;48.206;16.340;2024-03-23T06:17:48;98408.84;;;18.98;38.50
16331;BME280;8275;48.206;16.340;2024-03-23T06:20:16;98402.94;;;19.00;38.40
16331;BME280;8275;48.206;16.340;2024-03-23T06:22:42;98393.63;;;19.04;38.36
16331;BME280;8275;48.206;16.340;2024-03-23T06:25:11;98391.19;;;19.03;38.14
16331;BME280;8275;48.206;16.340;2024-03-23T06:27:38;98395.75;;;19.07;38.37
16331;BME280;8275;48.206;16.340;2024-03-23T06:30:07;98394.59;;;19.08;38.31
16331;BME280;8275;48.206;16.340;2024-03-23T06:32:34;98393.13;;;19.11;38.01
16331;BME280;8275;48.206;16.340;2024-03-23T06:35:01;98387.22;;;19.12;38.14
16331;BME280;8275;48.206;16.340;2024-03-23T06:37:34;98385.75;;;19.15;38.07
16331;BME280;8275;48.206;16.340;2024-03-23T06:40:01;98394.56;;;19.17;38.04
16331;BME280;8275;48.206;16.340;2024-03-23T06:42:29;98381.03;;;19.15;38.04
16331;BME280;8275;48.206;16.340;2024-03-23T06:44:56;98388.19;;;19.16;38.08
16331;BME280;8275;48.206;16.340;2024-03-23T06:47:23;98390.13;;;19.16;38.04
16331;BME280;8275;48.206;16.340;2024-03-23T06:49:51;98386.56;;;19.15;37.94
16331;BME280;8275;48.206;16.340;2024-03-23T06:52:18;98386.72;;;19.19;37.97
16331;BME280;8275;48.206;16.340;2024-03-23T06:54:45;98387.19;;;19.21;37.94
16331;BME280;8275;48.206;16.340;2024-03-23T06:57:12;98387.00;;;19.26;37.92
16331;BME280;8275;48.206;16.340;2024-03-23T06:59:40;98378.00;;;19.29;37.89
16331;BME280;8275;48.206;16.340;2024-03-23T07:02:07;98381.09;;;19.36;37.95
16331;BME280;8275;48.206;16.340;2024-03-23T07:04:35;98386.13;;;19.42;37.87
16331;BME280;8275;48.206;16.340;2024-03-23T07:07:02;98372.53;;;19.49;37.89
16331;BME280;8275;48.206;16.340;2024-03-23T07:09:29;98374.78;;;19.56;37.81
16331;BME280;8275;48.206;16.340;2024-03-23T07:11:56;98378.97;;;19.62;37.70
16331;BME280;8275;48.206;16.340;2024-03-23T07:14:24;98374.88;;;19.68;37.66
16331;BME280;8275;48.206;16.340;2024-03-23T07:16:52;98373.50;;;19.74;37.43
16331;BME280;8275;48.206;16.340;2024-03-23T07:19:20;98376.91;;;19.80;37.54
16331;BME280;8275;48.206;16.340;2024-03-23T07:21:46;98385.03;;;19.85;37.39
16331;BME280;8275;48.206;16.340;2024-03-23T07:24:15;98378.13;;;19.91;37.49
16331;BME280;8275;48.206;16.340;2024-03-23T07:26:41;98380.38;;;19.97;37.59
16331;BME280;8275;48.206;16.340;2024-03-23T07:29:08;98379.47;;;20.05;37.46
16331;BME280;8275;48.206;16.340;2024-03-23T07:31:35;98374.31;;;20.16;37.23
16331;BME280;8275;48.206;16.340;2024-03-23T07:34:04;98373.81;;;20.22;37.18
16331;BME280;8275;48.206;16.340;2024-03-23T07:36:32;98372.41;;;20.28;36.99
16331;BME280;8275;48.206;16.340;2024-03-23T07:38:59;98373.25;;;20.29;37.05
16331;BME280;8275;48.206;16.340;2024-03-23T07:41:25;98364.06;;;20.28;36.89
16331;BME280;8275;48.206;16.340;2024-03-23T07:43:54;98362.31;;;20.24;36.53
16331;BME280;8275;48.206;16.340;2024-03-23T07:46:21;98364.34;;;20.15;36.65
16331;BME280;8275;48.206;16.340;2024-03-23T07:48:48;98360.00;;;20.05;36.59
16331;BME280;8275;48.206;16.340;2024-03-23T07:51:20;98354.06;;;19.95;36.63
16331;BME280;8275;48.206;16.340;2024-03-23T07:53:47;98355.41;;;19.89;36.60
16331;BME280;8275;48.206;16.340;2024-03-23T07:56:15;98358.06;;;19.85;36.68
16331;BME280;8275;48.206;16.340;2024-03-23T07:58:44;98362.94;;;19.88;36.72
16331;BME280;8275;48.206;16.340;2024-03-23T08:01:12;98348.50;;;19.95;36.49
16331;BME280;8275;48.206;16.340;2024-03-23T08:03:42;98349.13;;;20.00;36.35
16331;BME280;8275;48.206;16.340;2024-03-23T08:06:10;98347.13;;;20.01;36.57
16331;BME280;8275;48.206;16.340;2024-03-23T08:08:40;98338.00;;;20.00;36.51
16331;BME280;8275;48.206;16.340;2024-03-23T08:11:07;98329.66;;;20.00;36.60
16331;BME280;8275;48.206;16.340;2024-03-23T08:13:36;98322.59;;;20.03;36.50
16331;BME280;8275;48.206;16.340;2024-03-23T08:16:04;98324.34;;;20.07;36.56
16331;BME280;8275;48.206;16.340;2024-03-23T08:18:32;98311.72;;;20.10;36.39
16331;BME280;8275;48.206;16.340;2024-03-23T08:20:59;98309.06;;;20.13;36.08
16331;BME280;8275;48.206;16.340;2024-03-23T08:23:28;98309.00;;;20.22;36.00
16331;BME280;8275;48.206;16.340;2024-03-23T08:25:59;98290.41;;;20.35;35.99
16331;BME280;8275;48.206;16.340;2024-03-23T08:28:27;98285.44;;;20.52;35.71
16331;BME280;8275;48.206;16.340;2024-03-23T08:30:55;98282.34;;;20.66;35.55
16331;BME280;8275;48.206;16.340;2024-03-23T08:33:23;98275.66;;;20.79;35.05
16331;BME280;8275;48.206;16.340;2024-03-23T08:35:54;98273.66;;;20.91;34.94
16331;BME280;8275;48.206;16.340;2024-03-23T08:38:23;98267.53;;;21.10;34.64
16331;BME280;8275;48.206;16.340;2024-03-23T08:40:58;98265.66;;;21.26;34.92
16331;BME280;8275;48.206;16.340;2024-03-23T08:43:26;98256.00;;;21.48;34.62
16331;BME280;8275;48.206;16.340;2024-03-23T08:45:53;98247.34;;;21.65;33.89
16331;BME280;8275;48.206;16.340;2024-03-23T08:48:20;98245.44;;;21.81;33.93
16331;BME280;8275;48.206;16.340;2024-03-23T08:50:57;98245.78;;;21.92;33.99
16331;BME280;8275;48.206;16.340;2024-03-23T08:53:26;98230.16;;;22.03;33.58
16331;BME280;8275;48.206;16.340;2024-03-23T08:55:53;98229.63;;;22.13;33.71
16331;BME280;8275;48.206;16.340;2024-03-23T08:58:24;98224.22;;;22.20;33.55
16331;BME280;8275;48.206;16.340;2024-03-23T09:00:51;98215.44;;;22.33;33.11
16331;BME280;8275;48.206;16.340;2024-03-23T09:03:19;98208.59;;;22.47;33.17
16331;BME280;8275;48.206;16.340;2024-03-23T09:05:45;98204.31;;;22.65;33.13
16331;BME280;8275;48.206;16.340;2024-03-23T09:08:13;98191.50;;;22.79;32.75
16331;BME280;8275;48.206;16.340;2024-03-23T09:10:40;98181.03;;;22.92;32.15
16331;BME280;8275;48.206;16.340;2024-03-23T09:13:08;98181.81;;;23.08;32.39
16331;BME280;8275;48.206;16.340;2024-03-23T09:15:46;98174.91;;;23.21;31.45
16331;BME280;8275;48.206;16.340;2024-03-23T09:18:14;98165.28;;;23.34;31.47
16331;BME280;8275;48.206;16.340;2024-03-23T09:20:40;98168.28;;;23.45;31.19
16331;BME280;8275;48.206;16.340;2024-03-23T09:23:08;98162.56;;;23.57;31.02
16331;BME280;8275;48.206;16.340;2024-03-23T09:25:36;98152.38;;;23.68;30.68
16331;BME280;8275;48.206;16.340;2024-03-23T09:28:06;98134.34;;;23.85;30.60
16331;BME280;8275;48.206;16.340;2024-03-23T09:30:36;98133.41;;;24.00;30.38
16331;BME280;8275;48.206;16.340;2024-03-23T09:33:08;98125.75;;;24.16;30.42
16331;BME280;8275;48.206;16.340;2024-03-23T09:35:37;98122.75;;;24.28;30.33
16331;BME280;8275;48.206;16.340;2024-03-23T09:38:04;98120.13;;;24.38;30.05
16331;BME280;8275;48.206;16.340;2024-03-23T09:40:32;98110.69;;;24.47;29.77
16331;BME280;8275;48.206;16.340;2024-03-23T09:42:59;98108.41;;;24.56;29.70
16331;BME280;8275;48.206;16.340;2024-03-23T09:45:28;98098.16;;;24.63;29.58
16331;BME280;8275;48.206;16.340;2024-03-23T09:47:57;98095.09;;;24.75;29.15
16331;BME280;8275;48.206;16.340;2024-03-23T09:50:24;98088.88;;;24.85;29.39
16331;BME280;8275;48.206;16.340;2024-03-23T09:52:51;98084.19;;;24.93;29.14
16331;BME280;8275;48.206;16.340;2024-03-23T09:55:18;98075.00;;;24.96;28.84
16331;BME280;8275;48.206;16.340;2024-03-23T09:57:45;98067.81;;;24.95;28.73
16331;BME280;8275;48.206;16.340;2024-03-23T10:00:13;98068.25;;;24.97;28.50
16331;BME280;8275;48.206;16.340;2024-03-23T10:02:42;98061.09;;;25.03;28.50
16331;BME280;8275;48.206;16.340;2024-03-23T10:05:20;98048.38;;;25.09;28.70
16331;BME280;8275;48.206;16.340;2024-03-23T10:07:49;98049.34;;;25.24;28.40
16331;BME280;8275;48.206;16.340;2024-03-23T10:10:16;98043.47;;;25.32;28.38
16331;BME280;8275;48.206;16.340;2024-03-23T10:12:45;98036.00;;;25.43;28.33
16331;BME280;8275;48.206;16.340;2024-03-23T10:15:19;98030.56;;;25.57;28.24
16331;BME280;8275;48.206;16.340;2024-03-23T10:17:47;98027.50;;;25.73;27.73
16331;BME280;8275;48.206;16.340;2024-03-23T10:20:13;98022.38;;;25.82;27.63
16331;BME280;8275;48.206;16.340;2024-03-23T10:22:47;98026.41;;;25.85;27.52
16331;BME280;8275;48.206;16.340;2024-03-23T10:25:14;98010.41;;;25.85;27.38
16331;BME280;8275;48.206;16.340;2024-03-23T10:27:42;98018.84;;;25.89;27.33
16331;BME280;8275;48.206;16.340;2024-03-23T10:30:11;98006.78;;;25.88;27.32
16331;BME280;8275;48.206;16.340;2024-03-23T10:32:39;98012.03;;;25.90;26.79
16331;BME280;8275;48.206;16.340;2024-03-23T10:35:16;98003.19;;;25.88;26.88
16331;BME280;8275;48.206;16.340;2024-03-23T10:37:47;97999.25;;;25.92;26.80
16331;BME280;8275;48.206;16.340;2024-03-23T10:40:13;97986.03;;;25.96;26.49
16331;BME280;8275;48.206;16.340;2024-03-23T10:42:41;97980.06;;;26.01;26.33
16331;BME280;8275;48.206;16.340;2024-03-23T10:45:09;97973.38;;;26.16;26.41
16331;BME280;8275;48.206;16.340;2024-03-23T10:47:37;97980.38;;;26.43;26.04
16331;BME280;8275;48.206;16.340;2024-03-23T10:50:05;97968.59;;;26.82;26.06
16331;BME280;8275;48.206;16.340;2024-03-23T10:52:33;97959.53;;;27.34;25.27
16331;BME280;8275;48.206;16.340;2024-03-23T10:55:05;97966.06;;;27.88;24.92
16331;BME280;8275;48.206;16.340;2024-03-23T10:57:40;97950.31;;;28.46;23.91
16331;BME280;8275;48.206;16.340;2024-03-23T11:00:09;97942.91;;;29.02;23.33
16331;BME280;8275;48.206;16.340;2024-03-23T11:02:38;97941.00;;;29.57;23.15
16331;BME280;8275;48.206;16.340;2024-03-23T11:05:29;97945.16;;;29.97;22.82
16331;BME280;8275;48.206;16.340;2024-03-23T11:07:56;97937.59;;;30.28;21.80
16331;BME280;8275;48.206;16.340;2024-03-23T11:10:29;97931.66;;;30.60;21.18
16331;BME280;8275;48.206;16.340;2024-03-23T11:13:11;97933.47;;;30.77;20.01
16331;BME280;8275;48.206;16.340;2024-03-23T11:15:45;97929.81;;;30.76;20.09
16331;BME280;8275;48.206;16.340;2024-03-23T11:18:21;97923.22;;;30.90;20.17
16331;BME280;8275;48.206;16.340;2024-03-23T11:20:47;97927.38;;;31.12;19.70
16331;BME280;8275;48.206;16.340;2024-03-23T11:23:27;97915.53;;;31.20;18.83
16331;BME280;8275;48.206;16.340;2024-03-23T11:25:56;97915.97;;;31.19;18.76
16331;BME280;8275;48.206;16.340;2024-03-23T11:28:23;97918.44;;;31.17;19.16
16331;BME280;8275;48.206;16.340;2024-03-23T11:30:50;97911.97;;;31.16;19.07
16331;BME280;8275;48.206;16.340;2024-03-23T11:33:17;97904.84;;;31.05;19.21
16331;BME280;8275;48.206;16.340;2024-03-23T11:35:44;97912.00;;;30.83;18.44
16331;BME280;8275;48.206;16.340;2024-03-23T11:38:13;97904.34;;;30.46;18.94
16331;BME280;8275;48.206;16.340;2024-03-23T11:40:42;97903.13;;;30.03;18.81
16331;BME280;8275;48.206;16.340;2024-03-23T11:43:13;97895.41;;;29.62;19.44
16331;BME280;8275;48.206;16.340;2024-03-23T11:45:42;97895.22;;;29.32;19.86
16331;BME280;8275;48.206;16.340;2024-03-23T11:48:12;97894.53;;;29.07;20.24
16331;BME280;8275;48.206;16.340;2024-03-23T11:50:40;97892.19;;;28.98;20.40
16331;BME280;8275;48.206;16.340;2024-03-23T11:53:14;97902.59;;;29.08;20.72
16331;BME280;8275;48.206;16.340;2024-03-23T11:55:49;97885.25;;;29.13;20.27
16331;BME280;8275;48.206;16.340;2024-03-23T11:58:19;97891.25;;;29.15;20.53
16331;BME280;8275;48.206;16.340;2024-03-23T12:00:52;97884.84;;;29.08;20.80
16331;BME280;8275;48.206;16.340;2024-03-23T12:03:20;97897.38;;;29.03;20.89
16331;BME280;8275;48.206;16.340;2024-03-23T12:05:49;97902.28;;;28.96;20.01
16331;BME280;8275;48.206;16.340;2024-03-23T12:08:22;97896.25;;;28.94;20.35
16331;BME280;8275;48.206;16.340;2024-03-23T12:10:51;97884.94;;;29.01;20.53
16331;BME280;8275;48.206;16.340;2024-03-23T12:13:21;97887.78;;;28.94;19.84
16331;BME280;8275;48.206;16.340;2024-03-23T12:15:51;97887.47;;;28.78;20.06
16331;BME280;8275;48.206;16.340;2024-03-23T12:18:23;97892.72;;;28.58;20.26
16331;BME280;8275;48.206;16.340;2024-03-23T12:20:50;97884.75;;;28.39;20.10
16331;BME280;8275;48.206;16.340;2024-03-23T12:23:18;97877.16;;;28.22;20.33
16331;BME280;8275;48.206;16.340;2024-03-23T12:25:44;97872.38;;;28.08;20.41
16331;BME280;8275;48.206;16.340;2024-03-23T12:28:12;97875.16;;;27.98;20.91
16331;BME280;8275;48.206;16.340;2024-03-23T12:30:40;97866.31;;;27.89;21.22
16331;BME280;8275;48.206;16.340;2024-03-23T12:33:08;97852.25;;;27.81;21.04
16331;BME280;8275;48.206;16.340;2024-03-23T12:35:34;97862.34;;;27.72;21.29
16331;BME280;8275;48.206;16.340;2024-03-23T12:38:03;97866.75;;;27.62;20.77
16331;BME280;8275;48.206;16.340;2024-03-23T12:40:29;97866.75;;;27.45;21.19
16331;BME280;8275;48.206;16.340;2024-03-23T12:42:57;97868.31;;;27.32;21.48
16331;BME280;8275;48.206;16.340;2024-03-23T12:45:23;97866.31;;;27.18;21.44
16331;BME280;8275;48.206;16.340;2024-03-23T12:47:52;97873.50;;;27.08;21.46
16331;BME280;8275;48.206;16.340;2024-03-23T12:50:20;97876.31;;;27.01;21.50
16331;BME280;8275;48.206;16.340;2024-03-23T12:52:48;97892.78;;;26.96;22.17
16331;BME280;8275;48.206;16.340;2024-03-23T12:55:14;97930.50;;;26.91;23.06
16331;BME280;8275;48.206;16.340;2024-03-23T12:57:42;97958.97;;;26.86;23.22
16331;BME280;8275;48.206;16.340;2024-03-23T13:00:10;97973.38;;;26.78;23.94
16331;BME280;8275;48.206;16.340;2024-03-23T13:02:38;97979.69;;;26.61;25.31
16331;BME280;8275;48.206;16.340;2024-03-23T13:05:07;98026.44;;;26.32;25.26
16331;BME280;8275;48.206;16.340;2024-03-23T13:07:36;98024.09;;;25.97;26.06
16331;BME280;8275;48.206;16.340;2024-03-23T13:10:05;98033.78;;;25.59;26.43
16331;BME280;8275;48.206;16.340;2024-03-23T13:12:33;98061.34;;;25.21;27.65
16331;BME280;8275;48.206;16.340;2024-03-23T13:15:00;98065.56;;;24.78;28.33
16331;BME280;8275;48.206;16.340;2024-03-23T13:17:27;98088.97;;;24.40;28.45
16331;BME280;8275;48.206;16.340;2024-03-23T13:19:54;98108.38;;;24.07;28.92
16331;BME280;8275;48.206;16.340;2024-03-23T13:22:24;98111.00;;;23.77;29.01
16331;BME280;8275;48.206;16.340;2024-03-23T13:24:50;98123.63;;;23.48;29.61
16331;BME280;8275;48.206;16.340;2024-03-23T13:27:18;98126.63;;;23.21;30.12
16331;BME280;8275;48.206;16.340;2024-03-23T13:29:44;98154.38;;;22.94;29.94
16331;BME280;8275;48.206;16.340;2024-03-23T13:32:13;98152.25;;;22.72;30.10
16331;BME280;8275;48.206;16.340;2024-03-23T13:34:40;98155.28;;;22.52;30.30
16331;BME280;8275;48.206;16.340;2024-03-23T13:37:07;98163.59;;;22.32;30.29
16331;BME280;8275;48.206;16.340;2024-03-23T13:39:35;98179.06;;;22.14;30.27
16331;BME280;8275;48.206;16.340;2024-03-23T13:42:03;98181.47;;;22.00;30.73
16331;BME280;8275;48.206;16.340;2024-03-23T13:44:30;98203.59;;;21.81;31.08
16331;BME280;8275;48.206;16.340;2024-03-23T13:46:57;98229.72;;;21.61;32.29
16331;BME280;8275;48.206;16.340;2024-03-23T13:49:29;98228.84;;;21.33;32.74
16331;BME280;8275;48.206;16.340;2024-03-23T13:51:58;98244.53;;;21.01;32.75
16331;BME280;8275;48.206;16.340;2024-03-23T13:54:25;98249.88;;;20.70;33.58
16331;BME280;8275;48.206;16.340;2024-03-23T13:56:55;98247.66;;;20.39;34.45